Time;durP1;ratioP1;P1;durP2;ratioP2;P2;SDS_P1;SDS_P2;PMS_P1;PMS_P2;Temp;Humidity;BMP_temperature;BMP_pressure;BME280_temperature;BME280_humidity;BME280_pressure;Samples;Min_cycle;Max_cycle;Signal;HPM_P1;HPM_P2
2022/03/09 00:02:16;;;;;;;16.88;9.07;;;-0.20;99.90;;;;;;5078977;28;20029;-78
2022/03/09 00:04:42;;;;;;;16.45;9.40;;;-0.20;99.90;;;;;;5061124;28;20395;-77
2022/03/09 00:07:08;;;;;;;14.52;8.05;;;-0.40;99.90;;;;;;5077478;28;20025;-77
2022/03/09 00:09:34;;;;;;;18.80;9.23;;;-0.60;99.90;;;;;;5077886;28;20042;-77
2022/03/09 00:12:00;;;;;;;21.25;8.93;;;-0.70;99.90;;;;;;5060772;28;20025;-78
2022/03/09 00:14:26;;;;;;;20.42;8.70;;;-0.70;99.90;;;;;;5059963;28;20044;-78
2022/03/09 00:16:51;;;;;;;18.38;9.30;;;-0.80;99.90;;;;;;5078198;28;20044;-78
2022/03/09 00:19:17;;;;;;;19.08;9.68;;;-0.70;99.90;;;;;;5059386;28;20024;-78
2022/03/09 00:21:43;;;;;;;16.45;8.75;;;-0.70;99.90;;;;;;5077061;28;20055;-78
2022/03/09 00:24:08;;;;;;;18.92;8.85;;;-0.80;99.90;;;;;;5077374;28;20021;-78
2022/03/09 00:26:34;;;;;;;23.00;9.90;;;-0.80;99.90;;;;;;5077423;28;20021;-78
2022/03/09 00:29:00;;;;;;;20.33;10.07;;;-0.80;99.90;;;;;;5076360;28;20036;-77
2022/03/09 00:31:25;;;;;;;18.73;9.98;;;-0.90;99.90;;;;;;5076047;28;20385;-78
2022/03/09 00:33:51;;;;;;;22.38;10.70;;;-0.90;99.90;;;;;;5076013;28;20060;-77
2022/03/09 00:36:17;;;;;;;20.67;9.88;;;-0.90;99.90;;;;;;5058225;28;20029;-78
2022/03/09 00:38:42;;;;;;;18.85;9.65;;;-1.00;99.90;;;;;;5076311;28;20306;-77
2022/03/09 00:41:08;;;;;;;21.52;10.05;;;-1.00;99.90;;;;;;5076539;28;20035;-78
2022/03/09 00:43:33;;;;;;;23.88;11.13;;;-1.10;99.90;;;;;;5069821;28;20021;-78
2022/03/09 00:45:59;;;;;;;22.70;10.88;;;-1.10;99.90;;;;;;5055624;28;20035;-77
2022/03/09 00:48:24;;;;;;;19.27;9.85;;;-1.10;99.90;;;;;;5037393;28;20118;-77
2022/03/09 00:50:50;;;;;;;26.50;10.57;;;-0.90;99.90;;;;;;5037871;28;20025;-80
2022/03/09 00:53:16;;;;;;;19.83;9.75;;;-0.90;99.90;;;;;;5056176;28;20036;-79
2022/03/09 00:55:41;;;;;;;20.48;10.68;;;-0.90;99.90;;;;;;5056923;28;20033;-80
2022/03/09 00:58:07;;;;;;;22.77;10.73;;;-0.80;99.90;;;;;;5056320;28;20522;-79
2022/03/09 01:00:32;;;;;;;23.02;10.95;;;-0.80;99.90;;;;;;5057775;28;20495;-79
2022/03/09 01:02:58;;;;;;;25.60;11.48;;;-0.80;99.90;;;;;;5056719;28;20032;-76
2022/03/09 01:05:24;;;;;;;23.85;11.48;;;-0.80;99.90;;;;;;5039667;28;20040;-79
2022/03/09 01:07:49;;;;;;;21.48;10.30;;;-0.70;99.90;;;;;;5057279;28;20389;-78
2022/03/09 01:10:15;;;;;;;25.60;11.27;;;-0.60;99.90;;;;;;5058626;28;20055;-79
2022/03/09 01:12:41;;;;;;;19.17;10.57;;;-0.40;99.90;;;;;;5060765;28;20033;-78
2022/03/09 01:15:07;;;;;;;20.13;10.52;;;-0.20;99.90;;;;;;5042180;28;20025;-80
2022/03/09 01:17:33;;;;;;;20.90;11.23;;;0.00;99.90;;;;;;5058474;28;20025;-80
2022/03/09 01:19:59;;;;;;;17.70;8.95;;;0.00;99.90;;;;;;5057770;28;20033;-80
2022/03/09 01:22:25;;;;;;;22.63;10.00;;;-0.10;99.90;;;;;;5058071;28;20108;-79
2022/03/09 01:24:51;;;;;;;21.88;10.63;;;-0.20;99.90;;;;;;5057326;28;20064;-80
2022/03/09 01:27:16;;;;;;;20.98;10.15;;;-0.40;99.90;;;;;;5057812;28;20045;-80
2022/03/09 01:29:42;;;;;;;18.85;9.43;;;-0.60;99.90;;;;;;5056947;28;20104;-80
2022/03/09 01:32:08;;;;;;;17.17;7.78;;;-0.90;99.90;;;;;;5056618;28;20033;-80
2022/03/09 01:34:34;;;;;;;20.40;9.93;;;-1.10;99.90;;;;;;5038445;28;20025;-79
2022/03/09 01:37:01;;;;;;;27.05;10.90;;;-1.20;99.90;;;;;;5054773;28;20291;-79
2022/03/09 01:39:26;;;;;;;17.75;9.60;;;-1.20;99.90;;;;;;5052625;28;20020;-79
2022/03/09 01:41:52;;;;;;;19.38;11.15;;;-1.20;99.90;;;;;;5054023;28;20560;-79
2022/03/09 01:44:20;;;;;;;21.13;10.15;;;-1.30;99.90;;;;;;5065196;28;20032;-80
2022/03/09 01:46:51;;;;;;;18.60;9.77;;;-1.30;99.90;;;;;;5056321;28;20083;-78
2022/03/09 01:49:18;;;;;;;26.85;11.80;;;-1.40;99.90;;;;;;5074124;28;20028;-79
2022/03/09 01:51:46;;;;;;;20.58;9.93;;;-1.40;99.90;;;;;;5074270;28;20033;-78
2022/03/09 01:54:15;;;;;;;20.23;10.25;;;-1.40;99.90;;;;;;5056527;28;20040;-79
2022/03/09 01:56:42;;;;;;;23.77;10.18;;;-1.50;99.90;;;;;;5078107;28;20021;-76
2022/03/09 01:59:10;;;;;;;20.05;9.60;;;-1.50;99.90;;;;;;5077753;28;20029;-80
2022/03/09 02:01:36;;;;;;;17.92;9.93;;;-1.60;99.90;;;;;;5062294;28;20149;-80
2022/03/09 02:04:03;;;;;;;23.02;10.98;;;-1.60;99.90;;;;;;5063698;28;20395;-80
2022/03/09 02:06:34;;;;;;;20.58;10.05;;;-1.70;99.90;;;;;;5081959;28;20093;-80
2022/03/09 02:11:45;;;;;;;20.43;9.87;;;-1.40;99.90;;;;;;5081799;28;20400;-79
2022/03/09 02:14:36;;;;;;;24.38;10.70;;;-1.40;99.90;;;;;;5061484;28;20025;-79
2022/03/09 02:17:14;;;;;;;23.05;11.23;;;-1.30;99.90;;;;;;5078164;28;20024;-79
2022/03/09 02:19:41;;;;;;;22.08;10.75;;;-1.30;99.90;;;;;;5078285;28;20028;-78
2022/03/09 02:22:27;;;;;;;21.45;10.80;;;-1.20;99.90;;;;;;5079532;28;20024;-79
2022/03/09 02:24:52;;;;;;;21.70;10.45;;;-1.20;99.90;;;;;;5056749;28;20036;-77
2022/03/09 02:27:22;;;;;;;20.48;9.93;;;-1.30;99.90;;;;;;5068398;28;20043;-78
2022/03/09 02:29:49;;;;;;;25.58;10.95;;;-1.40;99.90;;;;;;5092071;28;20119;-79
2022/03/09 02:32:14;;;;;;;23.27;10.07;;;-1.50;99.90;;;;;;5083425;28;20035;-79
2022/03/09 02:34:40;;;;;;;20.42;10.27;;;-1.60;99.90;;;;;;5062101;28;20024;-77
2022/03/09 02:37:05;;;;;;;23.63;11.43;;;-1.60;99.90;;;;;;5075598;28;20040;-79
2022/03/09 02:39:31;;;;;;;21.30;10.70;;;-1.60;99.90;;;;;;5075967;28;20021;-79
2022/03/09 02:41:57;;;;;;;19.80;10.90;;;-1.70;99.90;;;;;;5086875;28;20024;-79
2022/03/09 02:44:22;;;;;;;19.52;10.77;;;-1.70;99.90;;;;;;5069353;28;20059;-79
2022/03/09 02:46:48;;;;;;;19.23;9.68;;;-1.60;99.90;;;;;;5062352;28;20041;-78
2022/03/09 02:49:14;;;;;;;19.20;10.82;;;-1.50;99.90;;;;;;5067596;28;20087;-80
2022/03/09 02:51:39;;;;;;;20.52;10.07;;;-1.50;99.90;;;;;;5071744;28;20048;-78
2022/03/09 02:54:05;;;;;;;21.73;10.13;;;-1.40;99.90;;;;;;5067544;28;20113;-78
2022/03/09 02:56:31;;;;;;;18.55;9.60;;;-1.60;99.90;;;;;;5059445;28;20104;-79
2022/03/09 02:58:57;;;;;;;20.77;9.85;;;-1.70;99.90;;;;;;5060350;28;20017;-78
2022/03/09 03:01:23;;;;;;;23.40;10.80;;;-1.80;99.90;;;;;;5060861;28;20376;-78
2022/03/09 03:03:48;;;;;;;21.45;11.00;;;-1.90;99.90;;;;;;5060463;28;20057;-77
2022/03/09 03:06:14;;;;;;;23.27;10.68;;;-2.00;99.90;;;;;;5048224;28;20134;-78
2022/03/09 03:08:40;;;;;;;20.52;10.73;;;-2.00;99.90;;;;;;5074099;28;20033;-78
2022/03/09 03:11:10;;;;;;;23.75;10.02;;;-2.00;99.90;;;;;;5066917;28;20520;-78
2022/03/09 03:13:37;;;;;;;19.38;11.13;;;-1.90;99.90;;;;;;5062334;28;20040;-78
2022/03/09 03:16:03;;;;;;;25.00;10.85;;;-1.80;99.90;;;;;;5044457;28;20499;-77
2022/03/09 03:18:28;;;;;;;17.73;9.35;;;-1.70;99.90;;;;;;5065777;28;20052;-80
2022/03/09 03:20:54;;;;;;;21.25;10.75;;;-1.80;99.90;;;;;;5062614;28;20090;-80
2022/03/09 03:23:25;;;;;;;23.30;11.25;;;-1.80;99.90;;;;;;5073869;28;20029;-81
2022/03/09 03:25:52;;;;;;;19.88;10.48;;;-2.00;99.90;;;;;;5080525;28;20021;-80
2022/03/09 03:28:18;;;;;;;21.35;10.63;;;-2.00;99.90;;;;;;5079811;28;20021;-80
2022/03/09 03:30:44;;;;;;;21.40;11.07;;;-2.00;99.90;;;;;;5081296;28;20032;-80
2022/03/09 03:33:10;;;;;;;20.58;10.75;;;-2.00;99.90;;;;;;5062184;28;20128;-78
2022/03/09 03:35:36;;;;;;;20.90;10.70;;;-2.00;99.90;;;;;;5061708;28;20059;-77
2022/03/09 03:38:02;;;;;;;22.75;11.32;;;-2.00;99.90;;;;;;5079316;28;20028;-78
2022/03/09 03:40:27;;;;;;;20.42;9.60;;;-1.90;99.90;;;;;;5061996;28;20067;-78
2022/03/09 03:42:53;;;;;;;20.85;10.10;;;-2.00;99.90;;;;;;5079372;28;20056;-78
2022/03/09 03:45:19;;;;;;;21.20;11.18;;;-2.10;99.90;;;;;;5060608;28;20083;-80
2022/03/09 03:47:44;;;;;;;20.10;10.77;;;-2.10;99.90;;;;;;5059613;28;20491;-78
2022/03/09 03:50:10;;;;;;;22.85;10.52;;;-2.10;99.90;;;;;;5062088;28;20029;-81
2022/03/09 03:52:35;;;;;;;18.65;10.70;;;-2.00;99.90;;;;;;5062181;28;20447;-81
2022/03/09 03:55:01;;;;;;;18.17;9.30;;;-1.80;99.90;;;;;;5044817;28;20032;-81
2022/03/09 03:57:27;;;;;;;22.67;10.90;;;-1.70;99.90;;;;;;5064435;28;20029;-80
2022/03/09 03:59:52;;;;;;;16.92;9.43;;;-1.90;99.90;;;;;;5063953;28;20021;-77
2022/03/09 04:02:18;;;;;;;18.75;9.90;;;-2.00;99.90;;;;;;5059110;28;20021;-76
2022/03/09 04:04:44;;;;;;;18.83;10.55;;;-2.10;99.90;;;;;;5040208;28;20120;-78
2022/03/09 04:07:09;;;;;;;20.63;10.10;;;-2.00;99.90;;;;;;5056923;28;20135;-78
2022/03/09 04:09:35;;;;;;;22.75;12.20;;;-1.90;99.90;;;;;;5038527;28;20033;-79
2022/03/09 04:12:00;;;;;;;22.38;10.75;;;-1.90;99.90;;;;;;5056357;28;20040;-77
2022/03/09 04:14:26;;;;;;;19.83;9.80;;;-2.00;99.90;;;;;;5056932;28;20036;-78
2022/03/09 04:16:51;;;;;;;17.88;9.07;;;-2.00;99.90;;;;;;5056519;28;20025;-78
2022/03/09 04:19:17;;;;;;;16.30;8.38;;;-1.80;99.90;;;;;;5056755;28;20025;-78
2022/03/09 04:21:43;;;;;;;16.15;8.07;;;-1.50;99.90;;;;;;5057341;28;20021;-77
2022/03/09 04:24:08;;;;;;;19.23;8.40;;;-1.10;99.90;;;;;;5057140;28;20025;-78
2022/03/09 04:26:34;;;;;;;18.15;8.52;;;-1.00;99.90;;;;;;5040215;28;20372;-80
2022/03/09 04:29:00;;;;;;;18.05;8.23;;;-0.90;99.90;;;;;;5039907;28;20377;-78
2022/03/09 04:31:25;;;;;;;16.90;8.27;;;-0.90;99.90;;;;;;5057475;28;20444;-78
2022/03/09 04:33:51;;;;;;;14.10;7.45;;;-0.90;99.90;;;;;;5041081;28;20024;-78
2022/03/09 04:36:17;;;;;;;11.90;6.35;;;-0.90;99.90;;;;;;5058214;28;20077;-79
2022/03/09 04:38:43;;;;;;;11.15;5.53;;;-0.60;99.90;;;;;;5057551;28;20025;-79
2022/03/09 04:41:08;;;;;;;13.13;6.32;;;-0.40;99.90;;;;;;5058552;28;20029;-80
2022/03/09 04:43:34;;;;;;;15.25;5.55;;;-0.10;99.90;;;;;;5064251;28;20021;-78
2022/03/09 04:46:00;;;;;;;14.32;6.35;;;0.20;99.90;;;;;;5060484;28;20032;-79
2022/03/09 04:48:25;;;;;;;11.48;5.05;;;0.50;99.90;;;;;;5059903;28;20086;-78
2022/03/09 04:50:51;;;;;;;20.15;10.13;;;0.60;99.90;;;;;;5077926;28;20081;-80
2022/03/09 04:53:17;;;;;;;13.93;7.20;;;0.50;99.90;;;;;;5078186;28;20047;-80
2022/03/09 04:55:42;;;;;;;22.10;9.45;;;0.20;99.90;;;;;;5060936;28;20055;-79
2022/03/09 04:58:09;;;;;;;13.82;6.82;;;0.00;99.90;;;;;;5079409;28;20087;-78
2022/03/09 05:00:34;;;;;;;21.77;10.27;;;-0.10;99.90;;;;;;5060543;28;20025;-78
2022/03/09 05:03:00;;;;;;;23.40;9.70;;;-0.10;99.90;;;;;;5077762;28;20032;-79
2022/03/09 05:05:25;;;;;;;77.53;25.45;;;-0.30;99.90;;;;;;5078666;28;20089;-79
2022/03/09 05:07:51;;;;;;;47.80;16.92;;;-0.50;99.90;;;;;;5079288;28;20093;-79
2022/03/09 05:10:16;;;;;;;70.20;22.83;;;-0.70;99.90;;;;;;5080298;28;20024;-81
2022/03/09 05:12:42;;;;;;;56.90;21.02;;;-0.80;99.90;;;;;;5080581;28;20037;-79
2022/03/09 05:15:08;;;;;;;25.60;10.95;;;-0.90;99.90;;;;;;5063026;28;20062;-79
2022/03/09 05:17:40;;;;;;;23.95;11.18;;;-1.00;99.90;;;;;;5080607;28;20025;-79
2022/03/09 05:20:06;;;;;;;29.20;13.27;;;-1.10;99.90;;;;;;5061185;28;20395;-80
2022/03/09 05:22:32;;;;;;;51.67;19.75;;;-1.30;99.90;;;;;;5061896;28;20036;-80
2022/03/09 05:24:57;;;;;;;25.92;13.48;;;-1.30;99.90;;;;;;5061910;28;20044;-80
2022/03/09 05:27:26;;;;;;;50.05;20.20;;;-1.40;99.90;;;;;;5078985;28;20173;-79
2022/03/09 05:29:52;;;;;;;106.43;34.58;;;-1.40;99.90;;;;;;5078221;28;20082;-80
2022/03/09 05:32:17;;;;;;;83.25;30.58;;;-1.40;99.90;;;;;;5079603;28;20040;-81
2022/03/09 05:34:44;;;;;;;63.70;25.10;;;-1.50;99.90;;;;;;5079945;28;20063;-80
2022/03/09 05:37:09;;;;;;;28.70;12.10;;;-1.50;99.90;;;;;;5059040;28;20024;-81
2022/03/09 05:39:35;;;;;;;13.35;7.57;;;-1.40;99.90;;;;;;5058965;28;20509;-81
2022/03/09 05:42:01;;;;;;;15.95;7.63;;;-1.10;99.90;;;;;;5059221;28;20490;-81
2022/03/09 05:44:26;;;;;;;18.25;7.78;;;-0.80;99.90;;;;;;5047549;28;20028;-80
2022/03/09 05:46:52;;;;;;;10.48;5.53;;;-0.60;99.90;;;;;;5039598;28;20036;-81
2022/03/09 05:49:17;;;;;;;26.55;11.70;;;-0.30;99.90;;;;;;5058974;28;20021;-81
2022/03/09 05:51:43;;;;;;;32.67;10.95;;;-0.30;99.90;;;;;;5060217;28;20053;-85
2022/03/09 05:54:09;;;;;;;27.83;11.55;;;-0.50;99.90;;;;;;5043301;28;20037;-83
2022/03/09 05:56:35;;;;;;;33.83;17.30;;;-0.80;99.90;;;;;;5042915;28;20217;-84
2022/03/09 05:59:00;;;;;;;62.80;28.02;;;-1.00;99.90;;;;;;5042992;28;20487;-83
2022/03/09 06:01:26;;;;;;;22.55;10.77;;;-1.10;99.90;;;;;;5044538;28;20029;-84
2022/03/09 06:03:51;;;;;;;25.52;9.98;;;-1.10;99.90;;;;;;5044032;28;20021;-82
2022/03/09 06:06:17;;;;;;;27.17;11.20;;;-1.00;99.90;;;;;;5044177;28;20428;-80
2022/03/09 06:08:42;;;;;;;23.77;9.85;;;-1.00;99.90;;;;;;5043190;28;20025;-81
2022/03/09 06:11:08;;;;;;;21.40;10.00;;;-1.00;99.90;;;;;;5042683;28;20032;-82
2022/03/09 06:13:33;;;;;;;18.77;9.30;;;-1.00;99.90;;;;;;5043407;28;20017;-83
2022/03/09 06:15:59;;;;;;;25.33;10.27;;;-0.90;99.90;;;;;;5043688;28;20248;-83
2022/03/09 06:18:25;;;;;;;17.15;9.00;;;-1.00;99.90;;;;;;5042981;28;20025;-83
2022/03/09 06:20:51;;;;;;;17.15;8.25;;;-0.90;99.90;;;;;;5044785;28;20033;-83
2022/03/09 06:23:18;;;;;;;16.80;7.70;;;-0.50;99.90;;;;;;5053885;28;20032;-85
2022/03/09 06:25:43;;;;;;;16.90;7.45;;;-0.10;99.90;;;;;;5068135;28;20032;-85
2022/03/09 06:28:09;;;;;;;19.23;7.68;;;0.10;99.90;;;;;;5049730;28;20029;-85
2022/03/09 06:30:34;;;;;;;15.80;8.10;;;0.20;99.90;;;;;;5047470;28;20025;-84
2022/03/09 06:33:00;;;;;;;18.38;8.30;;;0.40;99.90;;;;;;5047489;28;20029;-82
2022/03/09 06:35:26;;;;;;;17.23;7.82;;;0.30;99.90;;;;;;5046570;28;20096;-82
2022/03/09 06:37:52;;;;;;;14.30;7.25;;;0.50;99.90;;;;;;5045204;28;20027;-82
2022/03/09 06:40:18;;;;;;;18.10;7.93;;;0.70;99.90;;;;;;5041595;28;20496;-80
2022/03/09 06:42:43;;;;;;;15.57;7.80;;;1.00;99.90;;;;;;5045450;28;20032;-83
2022/03/09 06:45:09;;;;;;;17.50;7.90;;;1.00;99.90;;;;;;5056715;28;20037;-83
2022/03/09 06:47:38;;;;;;;13.80;7.13;;;1.00;99.90;;;;;;5075931;28;20046;-83
2022/03/09 06:50:14;;;;;;;12.32;7.05;;;1.10;99.90;;;;;;5076628;28;20024;-85
2022/03/09 06:52:39;;;;;;;18.23;7.50;;;1.40;99.90;;;;;;5075809;28;20078;-83
2022/03/09 06:55:08;;;;;;;17.58;8.65;;;1.50;99.90;;;;;;5048757;28;20032;-79
2022/03/09 06:57:36;;;;;;;15.27;7.72;;;1.70;99.90;;;;;;5075283;28;20021;-85
2022/03/09 07:00:04;;;;;;;15.60;7.90;;;2.00;99.90;;;;;;5054935;28;20476;-79
2022/03/09 07:02:29;;;;;;;27.75;9.13;;;2.20;99.90;;;;;;5044711;28;20036;-81
2022/03/09 07:04:55;;;;;;;16.35;7.47;;;2.30;99.90;;;;;;5046485;28;20021;-84
2022/03/09 07:07:20;;;;;;;14.35;6.40;;;2.60;99.90;;;;;;5072161;28;20013;-85
2022/03/09 07:09:46;;;;;;;10.07;5.93;;;3.10;99.90;;;;;;5057875;28;20097;-86
2022/03/09 07:12:13;;;;;;;15.82;6.95;;;3.50;99.90;;;;;;5053798;28;20025;-85
2022/03/09 07:14:38;;;;;;;10.40;5.57;;;3.90;99.90;;;;;;5049755;28;20029;-86
2022/03/09 07:17:04;;;;;;;11.93;6.07;;;4.40;93.30;;;;;;5046944;28;20036;-83
2022/03/09 07:19:30;;;;;;;14.25;6.43;;;4.90;90.50;;;;;;5046823;28;20076;-86
2022/03/09 07:21:55;;;;;;;13.18;6.25;;;5.30;83.00;;;;;;5064197;28;20085;-85
2022/03/09 07:24:21;;;;;;;13.40;6.00;;;5.70;79.10;;;;;;5045699;28;20035;-83
2022/03/09 07:26:47;;;;;;;11.93;5.53;;;6.00;74.50;;;;;;5045447;28;20060;-83
2022/03/09 07:29:12;;;;;;;11.63;5.97;;;6.40;71.70;;;;;;5046244;28;20079;-83
2022/03/09 07:31:39;;;;;;;10.32;6.30;;;6.60;68.10;;;;;;5063617;28;20025;-84
2022/03/09 07:34:05;;;;;;;10.65;5.60;;;6.70;66.40;;;;;;5046620;28;20036;-83
2022/03/09 07:36:31;;;;;;;10.48;5.38;;;6.90;65.40;;;;;;5045569;28;20021;-84
2022/03/09 07:38:57;;;;;;;10.05;4.93;;;7.10;64.00;;;;;;5064150;28;20033;-84
2022/03/09 07:41:22;;;;;;;10.43;5.55;;;7.20;62.40;;;;;;5047050;28;20084;-83
2022/03/09 07:43:48;;;;;;;11.57;5.47;;;7.20;61.90;;;;;;5053876;28;20050;-84
2022/03/09 07:46:14;;;;;;;10.57;5.22;;;7.30;62.20;;;;;;5065680;28;20156;-86
2022/03/09 07:48:40;;;;;;;12.38;4.95;;;7.40;61.20;;;;;;5066453;28;20085;-83
2022/03/09 07:51:05;;;;;;;19.65;5.55;;;7.40;60.40;;;;;;5061795;28;20017;-82
2022/03/09 07:53:31;;;;;;;11.77;5.75;;;7.50;62.10;;;;;;5065761;28;20021;-83
2022/03/09 07:55:56;;;;;;;10.48;5.65;;;7.50;59.70;;;;;;5083644;28;20088;-84
2022/03/09 07:58:22;;;;;;;12.82;5.47;;;7.80;59.70;;;;;;5083148;28;20016;-84
2022/03/09 08:00:48;;;;;;;12.13;5.78;;;7.90;59.60;;;;;;5063673;28;20127;-83
2022/03/09 08:03:13;;;;;;;8.48;5.28;;;8.00;58.60;;;;;;5065399;28;20021;-85
2022/03/09 08:05:39;;;;;;;9.13;5.45;;;8.10;58.40;;;;;;5084001;28;20499;-84
2022/03/09 08:08:05;;;;;;;9.43;5.38;;;8.30;58.50;;;;;;5086022;28;20025;-82
2022/03/09 08:10:30;;;;;;;7.50;5.07;;;8.50;58.00;;;;;;5069103;28;20368;-83
2022/03/09 08:12:56;;;;;;;9.48;5.50;;;8.60;57.30;;;;;;5088532;28;20111;-83
2022/03/09 08:15:22;;;;;;;10.70;5.68;;;8.70;56.90;;;;;;5067367;28;20028;-85
2022/03/09 08:17:47;;;;;;;8.90;5.28;;;8.90;56.60;;;;;;5083126;28;20024;-83
2022/03/09 08:20:13;;;;;;;9.70;5.15;;;8.90;55.00;;;;;;5063793;28;20025;-84
2022/03/09 08:22:42;;;;;;;9.13;5.32;;;9.00;55.60;;;;;;5064753;28;20024;-83
2022/03/09 08:25:08;;;;;;;13.05;5.82;;;9.10;55.20;;;;;;5064428;28;20025;-82
2022/03/09 08:27:34;;;;;;;14.52;5.65;;;9.30;54.80;;;;;;5064485;28;20438;-82
2022/03/09 08:30:00;;;;;;;11.40;5.20;;;9.60;55.20;;;;;;5064445;28;20032;-82
2022/03/09 08:32:25;;;;;;;9.63;5.18;;;9.80;53.20;;;;;;5082692;28;20121;-85
2022/03/09 08:34:54;;;;;;;7.68;5.40;;;9.90;54.20;;;;;;5064385;28;20107;-86
2022/03/09 08:37:19;;;;;;;9.43;5.63;;;10.10;52.50;;;;;;5081682;28;20027;-86
2022/03/09 08:39:48;;;;;;;9.93;5.70;;;10.00;52.20;;;;;;5063869;28;20043;-84
2022/03/09 08:42:16;;;;;;;8.55;5.50;;;9.90;52.90;;;;;;5064453;28;20479;-85
2022/03/09 08:44:42;;;;;;;9.75;6.05;;;10.20;52.30;;;;;;5063575;28;20028;-85
2022/03/09 08:47:08;;;;;;;12.10;5.88;;;10.50;52.20;;;;;;5063413;28;20119;-83
2022/03/09 08:49:35;;;;;;;9.18;6.18;;;10.70;50.20;;;;;;5064805;28;20028;-84
2022/03/09 08:52:01;;;;;;;10.98;6.25;;;10.80;51.10;;;;;;5064517;28;20060;-84
2022/03/09 08:54:27;;;;;;;11.02;7.10;;;11.10;50.50;;;;;;5064082;28;20043;-83
2022/03/09 08:56:52;;;;;;;10.18;5.97;;;11.10;49.20;;;;;;5081231;28;20405;-86
2022/03/09 08:59:18;;;;;;;9.65;5.60;;;11.00;48.90;;;;;;5063319;28;20123;-83
2022/03/09 09:01:44;;;;;;;8.65;5.55;;;11.10;49.60;;;;;;5063274;28;20392;-84
2022/03/09 09:04:10;;;;;;;7.50;5.40;;;11.40;50.10;;;;;;5081475;28;20024;-86
2022/03/09 09:06:36;;;;;;;10.55;5.45;;;11.60;48.20;;;;;;5082193;28;20032;-85
2022/03/09 09:09:01;;;;;;;8.88;5.60;;;11.50;49.00;;;;;;5081949;28;20025;-85
2022/03/09 09:11:27;;;;;;;8.98;6.03;;;11.70;47.80;;;;;;5081433;28;20054;-86
2022/03/09 09:13:53;;;;;;;9.73;5.13;;;11.70;48.10;;;;;;5063437;28;20028;-85
2022/03/09 09:16:18;;;;;;;7.45;5.45;;;11.80;47.60;;;;;;5064504;28;20356;-84
2022/03/09 09:18:44;;;;;;;11.82;5.70;;;11.80;48.50;;;;;;5082806;28;20025;-84
2022/03/09 09:21:10;;;;;;;9.68;5.65;;;11.80;47.60;;;;;;5063971;28;20060;-83
2022/03/09 09:23:38;;;;;;;8.98;5.18;;;12.00;46.60;;;;;;5063711;28;20112;-86
2022/03/09 09:26:04;;;;;;;7.88;5.47;;;12.20;47.20;;;;;;5063963;28;20024;-86
2022/03/09 09:28:29;;;;;;;9.52;5.45;;;12.20;47.10;;;;;;5081201;28;20056;-86
2022/03/09 09:30:55;;;;;;;10.50;5.10;;;11.80;46.00;;;;;;5081652;28;20020;-85
2022/03/09 09:33:21;;;;;;;9.13;5.45;;;11.60;47.30;;;;;;5082416;28;20074;-85
2022/03/09 09:35:47;;;;;;;6.80;5.03;;;11.80;47.40;;;;;;5065513;28;20095;-86
2022/03/09 09:38:13;;;;;;;7.60;4.97;;;12.10;47.30;;;;;;5063534;28;20025;-84
2022/03/09 09:40:43;;;;;;;14.05;5.63;;;12.40;47.40;;;;;;5082967;28;20055;-85
2022/03/09 09:43:15;;;;;;;8.20;5.10;;;12.70;46.80;;;;;;5080304;28;20024;-84
2022/03/09 09:45:42;;;;;;;8.50;5.63;;;12.70;45.30;;;;;;5061941;28;20021;-84
2022/03/09 09:48:09;;;;;;;10.88;5.55;;;12.80;46.30;;;;;;5044663;28;20033;-84
2022/03/09 09:50:36;;;;;;;9.02;5.57;;;13.30;45.80;;;;;;5048294;28;20476;-84
2022/03/09 09:53:08;;;;;;;7.13;4.72;;;13.60;44.70;;;;;;5048905;28;20035;-84
2022/03/09 09:55:34;;;;;;;8.52;5.10;;;13.70;43.60;;;;;;5065435;28;20043;-86
2022/03/09 09:58:00;;;;;;;10.32;5.50;;;13.70;43.40;;;;;;5064282;28;20036;-86
2022/03/09 10:00:26;;;;;;;10.13;5.70;;;14.00;43.60;;;;;;5063597;28;20021;-84
2022/03/09 10:02:53;;;;;;;7.32;5.28;;;13.50;42.60;;;;;;5046000;28;20025;-84
2022/03/09 10:05:19;;;;;;;7.15;5.15;;;13.70;42.10;;;;;;5044690;28;20392;-86
2022/03/09 10:08:03;;;;;;;10.43;6.82;;;13.90;43.20;;;;;;5062637;28;20468;-83
2022/03/09 10:10:41;;;;;;;10.25;6.93;;;14.10;42.60;;;;;;5045166;28;20131;-83
2022/03/09 10:13:27;;;;;;;8.57;5.30;;;14.00;41.10;;;;;;5062668;28;20025;-84
2022/03/09 10:16:20;;;;;;;11.45;5.80;;;14.10;41.80;;;;;;5064102;28;20029;-84
2022/03/09 10:18:54;;;;;;;6.03;4.10;;;14.10;40.70;;;;;;5066335;28;20052;-86
2022/03/09 10:21:23;;;;;;;8.98;5.57;;;14.00;41.60;;;;;;5078881;28;20093;-86
2022/03/09 10:23:58;;;;;;;7.88;5.32;;;14.10;41.40;;;;;;5057340;28;20078;-86
2022/03/09 10:26:26;;;;;;;9.25;4.90;;;14.30;41.40;;;;;;5049950;28;20508;-84
2022/03/09 10:28:56;;;;;;;6.28;4.72;;;14.30;40.50;;;;;;5067479;28;20025;-84
2022/03/09 10:31:34;;;;;;;11.07;5.50;;;14.40;41.00;;;;;;5048403;28;20017;-85
2022/03/09 10:34:20;;;;;;;10.80;5.30;;;14.40;40.70;;;;;;5047797;28;20025;-85
2022/03/09 10:36:58;;;;;;;7.13;5.13;;;14.80;41.20;;;;;;5047687;28;20035;-84
2022/03/09 10:39:27;;;;;;;8.52;5.45;;;15.10;40.40;;;;;;5047283;28;20036;-86
2022/03/09 10:41:53;;;;;;;10.20;5.55;;;15.20;40.10;;;;;;5048123;28;20025;-83
2022/03/09 10:44:19;;;;;;;8.45;5.53;;;15.10;39.80;;;;;;5058630;28;20040;-84
2022/03/09 10:46:52;;;;;;;8.82;5.47;;;15.20;40.60;;;;;;5067209;28;20036;-85
2022/03/09 10:49:19;;;;;;;7.90;5.00;;;15.30;38.90;;;;;;5093276;28;20036;-85
2022/03/09 10:51:50;;;;;;;10.05;5.80;;;15.50;40.00;;;;;;5093079;28;20028;-85
2022/03/09 10:54:25;;;;;;;12.65;5.32;;;15.70;38.90;;;;;;5086358;28;20035;-86
2022/03/09 10:57:13;;;;;;;9.52;5.97;;;15.90;39.60;;;;;;5068268;28;20023;-85
2022/03/09 10:59:49;;;;;;;9.65;5.10;;;15.90;38.90;;;;;;5085499;28;20557;-86
2022/03/09 11:02:24;;;;;;;20.73;5.07;;;15.80;38.20;;;;;;5072430;28;20054;-84
2022/03/09 11:05:12;;;;;;;9.17;5.20;;;15.80;37.70;;;;;;5074261;28;20058;-85
2022/03/09 11:07:39;;;;;;;7.22;5.30;;;15.90;38.10;;;;;;5069442;28;20299;-85
2022/03/09 11:10:08;;;;;;;7.22;6.03;;;16.10;38.30;;;;;;5086382;28;20024;-86
2022/03/09 11:12:34;;;;;;;7.18;5.28;;;16.00;38.30;;;;;;5073263;28;20317;-85
2022/03/09 11:15:00;;;;;;;15.88;5.60;;;16.00;38.10;;;;;;5092993;28;20040;-83
2022/03/09 11:17:26;;;;;;;8.32;5.15;;;16.00;37.10;;;;;;5088286;28;20463;-85
2022/03/09 11:19:53;;;;;;;12.35;6.00;;;15.70;37.50;;;;;;5085210;28;20025;-85
2022/03/09 11:22:18;;;;;;;11.43;5.10;;;15.30;36.20;;;;;;5065479;28;20020;-83
2022/03/09 11:24:44;;;;;;;7.30;5.05;;;15.00;39.30;;;;;;5083306;28;20031;-84
2022/03/09 11:27:11;;;;;;;8.45;5.00;;;15.10;36.60;;;;;;5081521;28;20039;-83
2022/03/09 11:29:38;;;;;;;10.30;5.57;;;15.30;37.00;;;;;;5081937;28;20097;-85
2022/03/09 11:32:09;;;;;;;7.30;5.32;;;15.20;37.50;;;;;;5081449;28;20028;-86
2022/03/09 11:34:42;;;;;;;7.50;5.00;;;15.30;37.20;;;;;;5082147;28;20036;-83
2022/03/09 11:37:18;;;;;;;7.75;5.20;;;15.40;37.00;;;;;;5082022;28;20532;-84
2022/03/09 11:40:10;;;;;;;9.70;5.65;;;15.50;37.40;;;;;;5080936;28;20447;-82
2022/03/09 11:42:41;;;;;;;10.52;6.45;;;15.80;36.40;;;;;;5081392;28;20047;-83
2022/03/09 11:45:29;;;;;;;7.20;5.05;;;15.90;37.50;;;;;;5045673;28;20139;-83
2022/03/09 11:48:04;;;;;;;8.07;5.18;;;15.60;35.70;;;;;;5039764;23;20034;-87
2022/03/09 11:50:52;;;;;;;9.13;4.90;;;15.60;36.50;;;;;;5040114;28;20093;-88
2022/03/09 11:53:36;;;;;;;8.70;5.00;;;15.40;36.10;;;;;;5039667;28;20029;-87
2022/03/09 11:56:27;;;;;;;9.23;5.80;;;15.20;37.10;;;;;;5041411;28;20021;-86
2022/03/09 11:59:15;;;;;;;5.93;4.78;;;15.30;38.10;;;;;;5043290;28;20143;-85
2022/03/09 12:02:10;;;;;;;9.48;5.60;;;15.50;38.30;;;;;;5072254;22;20499;-74
2022/03/09 12:04:59;;;;;;;7.90;5.10;;;15.80;37.30;;;;;;5054654;28;20029;-74
2022/03/09 12:07:35;;;;;;;7.85;5.35;;;15.70;36.50;;;;;;5039895;28;20032;-78
2022/03/09 12:10:07;;;;;;;10.60;5.03;;;15.80;36.40;;;;;;5041603;28;20047;-77
2022/03/09 12:12:35;;;;;;;7.90;5.38;;;15.60;35.50;;;;;;5060073;28;20439;-78
2022/03/09 12:15:05;;;;;;;8.55;5.53;;;15.40;36.00;;;;;;5040904;28;20464;-77
2022/03/09 12:17:34;;;;;;;9.98;6.80;;;15.50;36.80;;;;;;5059042;28;20032;-77
2022/03/09 12:20:20;;;;;;;7.15;5.18;;;15.70;37.50;;;;;;5045818;28;20021;-76
2022/03/09 12:22:55;;;;;;;8.20;4.78;;;15.60;36.80;;;;;;5047103;28;20118;-77
2022/03/09 12:25:39;;;;;;;8.13;5.25;;;15.90;37.50;;;;;;5063103;28;20017;-78
2022/03/09 12:28:23;;;;;;;7.63;5.05;;;16.30;37.40;;;;;;5063820;28;20059;-78
2022/03/09 12:30:56;;;;;;;7.40;5.45;;;16.40;35.60;;;;;;5062488;28;20032;-77
2022/03/09 12:33:40;;;;;;;6.97;5.15;;;16.00;36.50;;;;;;5042415;28;20036;-78
2022/03/09 12:36:14;;;;;;;9.48;5.20;;;16.10;37.70;;;;;;5060172;28;20111;-77
2022/03/09 12:38:43;;;;;;;8.23;5.20;;;16.10;37.00;;;;;;5059131;28;20035;-76
2022/03/09 12:41:24;;;;;;;6.88;5.25;;;16.00;37.10;;;;;;5058806;28;20037;-77
2022/03/09 12:43:53;;;;;;;8.77;5.55;;;16.10;37.80;;;;;;5069523;28;20082;-77
2022/03/09 12:46:20;;;;;;;8.13;5.25;;;16.30;36.70;;;;;;5080110;28;20516;-77